createdAt,value
2018-04-23T00:01:39.787Z,2.70
2018-04-23T00:04:07.665Z,2.70
2018-04-23T00:06:33.587Z,2.90
2018-04-23T00:08:59.484Z,2.67
2018-04-23T00:11:25.336Z,2.97
2018-04-23T00:13:51.270Z,2.40
2018-04-23T00:16:20.539Z,2.80
2018-04-23T00:18:46.441Z,2.90
2018-04-23T00:21:14.050Z,2.70
2018-04-23T00:23:39.959Z,2.80
2018-04-23T00:26:09.711Z,2.70
2018-04-23T00:28:35.639Z,2.57
2018-04-23T00:31:02.984Z,2.30
2018-04-23T00:33:28.877Z,3.30
2018-04-23T00:35:58.167Z,2.77
2018-04-23T00:38:24.078Z,3.00
2018-04-23T00:40:53.318Z,2.53
2018-04-23T00:43:19.223Z,3.40
2018-04-23T00:45:45.095Z,3.23
2018-04-23T00:48:11.012Z,3.10
2018-04-23T00:50:36.949Z,2.80
2018-04-23T00:53:15.844Z,3.13
2018-04-23T00:55:41.751Z,3.23
2018-04-23T00:58:07.667Z,3.20
2018-04-23T01:00:33.646Z,3.00
2018-04-23T01:02:59.539Z,4.23
2018-04-23T01:05:25.438Z,2.50
2018-04-23T01:07:51.307Z,2.97
2018-04-23T01:10:17.243Z,2.33
2018-04-23T01:12:43.584Z,2.60
2018-04-23T01:15:09.457Z,2.93
2018-04-23T01:17:38.644Z,2.90
2018-04-23T01:20:04.599Z,2.67
2018-04-23T01:22:30.451Z,2.63
2018-04-23T01:24:56.398Z,3.10
2018-04-23T01:27:22.266Z,2.77
2018-04-23T01:29:49.435Z,2.50
2018-04-23T01:32:15.359Z,2.83
2018-04-23T01:34:44.291Z,2.50
2018-04-23T01:37:10.200Z,3.13
2018-04-23T01:39:39.849Z,2.67
2018-04-23T01:42:05.805Z,3.13
2018-04-23T01:44:33.658Z,2.83
2018-04-23T01:46:59.519Z,2.60
2018-04-23T01:49:28.464Z,2.73
2018-04-23T01:51:54.317Z,2.90
2018-04-23T01:54:24.044Z,2.80
2018-04-23T01:56:49.946Z,2.60
2018-04-23T01:59:15.888Z,3.00
2018-04-23T02:01:41.798Z,2.73
2018-04-23T02:04:08.909Z,2.87
2018-04-23T02:06:34.798Z,3.10
2018-04-23T02:09:00.702Z,2.60
2018-04-23T02:11:29.961Z,3.03
2018-04-23T02:13:56.535Z,3.40
2018-04-23T02:16:24.141Z,2.70
2018-04-23T02:18:50.050Z,3.20
2018-04-23T02:21:18.991Z,2.60
2018-04-23T02:23:45.082Z,2.93
2018-04-23T02:26:14.407Z,3.50
2018-04-23T02:28:40.378Z,2.97
2018-04-23T02:31:09.975Z,3.30
2018-04-23T02:33:35.895Z,2.80
2018-04-23T02:36:01.836Z,3.40
2018-04-23T02:38:27.798Z,3.47
2018-04-23T02:40:53.686Z,3.07
2018-04-23T02:43:20.669Z,2.93
2018-04-23T02:45:46.593Z,2.93
2018-04-23T02:48:16.340Z,3.10
2018-04-23T02:50:42.303Z,3.27
2018-04-23T02:53:09.565Z,2.80
2018-04-23T02:55:35.529Z,3.20
2018-04-23T02:58:05.181Z,2.70
2018-04-23T03:00:31.091Z,3.40
2018-04-23T03:02:58.709Z,3.60
2018-04-23T03:05:24.618Z,3.10
2018-04-23T03:07:53.340Z,2.60
2018-04-23T03:10:19.268Z,2.37
2018-04-23T03:12:45.156Z,3.50
2018-04-23T03:15:11.025Z,3.10
2018-04-23T03:17:36.927Z,3.00
2018-04-23T03:20:05.144Z,3.33
2018-04-23T03:22:30.999Z,3.30
2018-04-23T03:25:00.100Z,3.17
2018-04-23T03:27:26.034Z,2.83
2018-04-23T03:29:55.252Z,3.30
2018-04-23T03:32:21.199Z,3.60
2018-04-23T03:34:50.446Z,2.90
2018-04-23T03:37:16.458Z,3.33
2018-04-23T03:39:44.069Z,2.60
2018-04-23T03:42:10.027Z,3.00
2018-04-23T03:44:39.899Z,3.60
2018-04-23T03:47:05.807Z,2.97
2018-04-23T03:49:31.743Z,3.10
2018-04-23T03:51:57.668Z,3.37
2018-04-23T03:54:23.592Z,3.30
2018-04-23T03:56:50.479Z,3.10
2018-04-23T03:59:16.391Z,3.83
2018-04-23T04:01:45.284Z,3.30
2018-04-23T04:04:11.220Z,2.93
2018-04-23T04:06:40.531Z,3.37
2018-04-23T04:09:06.463Z,3.47
2018-04-23T04:11:35.046Z,3.10
2018-04-23T04:14:13.647Z,3.57
2018-04-23T04:16:47.785Z,3.00
2018-04-23T04:19:13.687Z,2.73
2018-04-23T04:21:39.551Z,3.03
2018-04-23T04:24:05.942Z,2.90
2018-04-23T04:26:32.039Z,3.80
2018-04-23T04:28:58.254Z,3.30
2018-04-23T04:31:24.147Z,3.33
2018-04-23T04:33:50.004Z,5.00
2018-04-23T04:36:15.915Z,2.60
2018-04-23T04:38:41.796Z,3.60
2018-04-23T04:41:07.669Z,3.27
2018-04-23T04:43:33.575Z,3.47
2018-04-23T04:45:59.502Z,3.37
2018-04-23T04:48:25.411Z,3.57
2018-04-23T04:50:51.315Z,3.13
2018-04-23T04:53:17.233Z,3.20
2018-04-23T04:55:43.111Z,3.70
2018-04-23T04:58:10.181Z,3.00
2018-04-23T05:00:36.043Z,3.67
2018-04-23T05:03:01.961Z,3.37
2018-04-23T05:05:27.847Z,4.03
2018-04-23T05:07:53.727Z,3.33
2018-04-23T05:10:22.730Z,4.00
2018-04-23T05:12:48.629Z,3.33
2018-04-23T05:15:17.564Z,3.43
2018-04-23T05:17:43.473Z,3.20
2018-04-23T05:20:10.999Z,3.37
2018-04-23T05:22:36.886Z,4.00
2018-04-23T05:25:06.411Z,3.67
2018-04-23T05:27:32.343Z,3.57
2018-04-23T05:30:01.654Z,3.20
2018-04-23T05:32:27.562Z,3.67
2018-04-23T05:34:54.965Z,2.70
2018-04-23T05:37:20.893Z,3.53
2018-04-23T05:39:46.796Z,3.93
2018-04-23T05:42:12.656Z,3.17
2018-04-23T05:44:38.526Z,3.23
2018-04-23T05:47:06.907Z,3.80
2018-04-23T05:49:32.847Z,3.03
2018-04-23T05:52:02.672Z,3.73
2018-04-23T05:54:28.546Z,3.90
2018-04-23T05:56:55.703Z,3.20
2018-04-23T05:59:21.631Z,3.87
2018-04-23T06:01:50.340Z,4.00
2018-04-23T06:04:16.222Z,3.80
2018-04-23T06:06:46.029Z,3.43
2018-04-23T06:09:11.899Z,3.00
2018-04-23T06:11:40.107Z,4.10
2018-04-23T06:14:08.298Z,3.37
2018-04-23T06:16:34.158Z,2.97
2018-04-23T06:19:00.077Z,4.00
2018-04-23T06:21:25.973Z,3.40
2018-04-23T06:23:51.963Z,4.50
2018-04-23T06:26:17.889Z,3.77
2018-04-23T06:28:46.906Z,3.43
2018-04-23T06:31:12.799Z,3.30
2018-04-23T06:33:41.299Z,4.57
2018-04-23T06:36:07.264Z,4.23
2018-04-23T06:38:36.591Z,3.50
2018-04-23T06:41:02.502Z,4.20
2018-04-23T06:43:31.633Z,4.30
2018-04-23T06:45:57.615Z,4.80
2018-04-23T06:48:27.065Z,3.80
2018-04-23T06:50:52.964Z,3.30
2018-04-23T06:53:18.926Z,9.83
2018-04-23T06:55:44.808Z,4.40
2018-04-23T06:58:10.742Z,7.20
2018-04-23T07:00:37.339Z,5.03
2018-04-23T07:03:03.225Z,4.80
2018-04-23T07:05:32.594Z,4.60
2018-04-23T07:07:58.536Z,4.10
2018-04-23T07:10:28.076Z,4.30
2018-04-23T07:12:53.900Z,4.50
2018-04-23T07:15:21.687Z,3.40
2018-04-23T07:17:47.615Z,5.07
2018-04-23T07:20:16.263Z,5.00
2018-04-23T07:22:42.135Z,5.13
2018-04-23T07:25:11.435Z,5.10
2018-04-23T07:27:37.352Z,5.20
2018-04-23T07:30:03.246Z,5.10
2018-04-23T07:32:29.188Z,5.33
2018-04-23T07:34:55.174Z,5.20
2018-04-23T07:37:22.931Z,5.60
2018-04-23T07:39:48.836Z,6.17
2018-04-23T07:42:18.272Z,4.73
2018-04-23T07:44:44.170Z,5.10
2018-04-23T07:47:11.961Z,9.70
2018-04-23T07:49:37.886Z,5.20
2018-04-23T07:52:07.504Z,4.10
2018-04-23T07:54:33.401Z,2.73
2018-04-23T07:57:02.915Z,3.40
2018-04-23T07:59:28.839Z,5.17
2018-04-23T08:01:56.355Z,3.30
2018-04-23T08:04:22.265Z,3.47
2018-04-23T08:06:48.221Z,2.90
2018-04-23T08:09:14.143Z,4.07
2018-04-23T08:11:40.033Z,3.30
2018-04-23T08:14:07.756Z,3.30
2018-04-23T08:16:33.649Z,3.40
2018-04-23T08:19:03.071Z,2.97
2018-04-23T08:21:28.998Z,3.90
2018-04-23T08:23:59.116Z,6.20
2018-04-23T08:26:25.048Z,4.70
2018-04-23T08:28:51.840Z,4.50
2018-04-23T08:31:17.775Z,3.40
2018-04-23T08:33:46.763Z,3.00
2018-04-23T08:36:13.200Z,3.07
2018-04-23T08:38:42.999Z,3.83
2018-04-23T08:41:08.911Z,3.17
2018-04-23T08:43:34.796Z,2.60
2018-04-23T08:46:00.671Z,7.70
2018-04-23T08:48:26.582Z,3.17
2018-04-23T08:50:52.783Z,3.70
2018-04-23T08:53:18.728Z,3.20
2018-04-23T08:55:47.970Z,3.37
2018-04-23T08:58:13.852Z,3.13
2018-04-23T09:00:42.355Z,2.67
2018-04-23T09:03:08.278Z,3.40
2018-04-23T09:05:37.311Z,4.23
2018-04-23T09:08:03.214Z,2.70
2018-04-23T09:10:32.661Z,2.50
2018-04-23T09:12:58.552Z,3.13
2018-04-23T09:15:27.639Z,3.30
2018-04-23T09:17:53.537Z,3.17
2018-04-23T09:20:19.403Z,3.10
2018-04-23T09:22:45.311Z,3.10
2018-04-23T09:25:11.216Z,3.20
2018-04-23T09:27:38.932Z,2.53
2018-04-23T09:30:04.879Z,3.27
2018-04-23T09:32:33.304Z,3.20
2018-04-23T09:34:59.207Z,3.57
2018-04-23T09:37:29.074Z,4.00
2018-04-23T09:39:54.984Z,3.70
2018-04-23T09:42:22.457Z,3.60
2018-04-23T09:44:48.360Z,3.90
2018-04-23T09:47:18.100Z,3.63
2018-04-23T09:49:44.007Z,4.23
2018-04-23T09:52:11.705Z,3.30
2018-04-23T09:54:37.561Z,4.10
2018-04-23T09:57:03.502Z,4.10
2018-04-23T09:59:29.413Z,4.10
2018-04-23T10:01:55.338Z,3.80
2018-04-23T10:04:25.111Z,3.90
2018-04-23T10:06:50.987Z,4.03
2018-04-23T10:09:18.968Z,4.30
2018-04-23T10:11:44.851Z,3.30
2018-04-23T10:14:12.915Z,3.67
2018-04-23T10:16:38.821Z,3.30
2018-04-23T10:19:07.544Z,4.43
2018-04-23T10:21:34.290Z,4.13
2018-04-23T10:24:03.190Z,4.13
2018-04-23T10:26:29.056Z,5.00
2018-04-23T10:28:58.804Z,4.90
2018-04-23T10:31:24.730Z,4.57
2018-04-23T10:33:50.597Z,4.10
2018-04-23T10:36:16.479Z,4.43
2018-04-23T10:38:42.423Z,4.20
2018-04-23T10:41:08.789Z,3.50
2018-04-23T10:43:34.721Z,3.60
2018-04-23T10:46:03.593Z,4.47
2018-04-23T10:48:29.479Z,3.97
2018-04-23T10:50:58.841Z,4.60
2018-04-23T10:53:24.757Z,4.50
2018-04-23T10:55:54.092Z,3.80
2018-04-23T10:58:19.970Z,4.20
2018-04-23T11:00:47.938Z,3.77
2018-04-23T11:03:13.809Z,5.10
2018-04-23T11:05:43.355Z,4.93
2018-04-23T11:08:09.221Z,3.70
2018-04-23T11:10:35.155Z,4.87
2018-04-23T11:13:01.040Z,3.77
2018-04-23T11:15:26.933Z,4.80
2018-04-23T11:17:54.667Z,5.63
2018-04-23T11:20:20.538Z,5.93
2018-04-23T11:22:49.935Z,4.43
2018-04-23T11:25:15.862Z,3.97
2018-04-23T11:27:43.830Z,4.30
2018-04-23T11:30:09.728Z,4.90
2018-04-23T11:32:39.068Z,4.30
2018-04-23T11:35:04.969Z,4.13
2018-04-23T11:37:34.836Z,5.17
2018-04-23T11:40:00.765Z,4.17
2018-04-23T11:42:28.298Z,4.50
2018-04-23T11:44:54.181Z,4.20
2018-04-23T11:47:20.056Z,4.80
2018-04-23T11:49:46.131Z,4.73
2018-04-23T11:52:12.025Z,4.80
2018-04-23T11:54:40.011Z,4.63
2018-04-23T11:57:05.924Z,5.40
2018-04-23T11:59:35.277Z,5.30
2018-04-23T12:02:01.210Z,4.37
2018-04-23T12:04:30.453Z,5.73
2018-04-23T12:06:56.332Z,5.10
2018-04-23T12:09:23.846Z,5.67
2018-04-23T12:11:49.711Z,4.97
2018-04-23T12:14:18.462Z,5.00
2018-04-23T12:16:44.406Z,5.13
2018-04-23T12:19:13.803Z,5.00
2018-04-23T12:21:39.749Z,5.70
2018-04-23T12:24:07.980Z,5.20
2018-04-23T12:26:33.893Z,5.67
2018-04-23T12:28:59.750Z,5.37
2018-04-23T12:31:25.707Z,5.57
2018-04-23T12:33:51.566Z,5.30
2018-04-23T12:36:20.676Z,5.80
2018-04-23T12:38:46.549Z,5.90
2018-04-23T12:41:14.018Z,5.90
2018-04-23T12:43:39.948Z,6.90
2018-04-23T12:46:08.825Z,6.23
2018-04-23T12:48:34.695Z,7.03
2018-04-23T12:51:03.500Z,7.53
2018-04-23T12:53:29.439Z,6.43
2018-04-23T12:55:58.574Z,7.47
2018-04-23T12:58:24.427Z,4.97
2018-04-23T13:00:50.350Z,5.90
2018-04-23T13:03:16.282Z,6.37
2018-04-23T13:05:42.241Z,7.00
2018-04-23T13:08:11.182Z,6.90
2018-04-23T13:10:37.092Z,5.70
2018-04-23T13:13:04.821Z,5.37
2018-04-23T13:15:30.724Z,4.67
2018-04-23T13:18:00.084Z,6.27
2018-04-23T13:20:25.971Z,4.70
2018-04-23T13:22:55.625Z,4.77
2018-04-23T13:25:21.508Z,4.30
2018-04-23T13:27:49.126Z,4.40
2018-04-23T13:30:15.027Z,4.33
2018-04-23T13:32:44.298Z,4.93
2018-04-23T13:35:10.200Z,4.27
2018-04-23T13:37:36.112Z,4.50
2018-04-23T13:40:02.061Z,4.20
2018-04-23T13:42:27.968Z,5.30
2018-04-23T13:44:56.980Z,4.37
2018-04-23T13:47:22.965Z,4.93
2018-04-23T13:49:50.579Z,5.97
2018-04-23T13:52:16.493Z,3.83
2018-04-23T13:54:44.941Z,4.70
2018-04-23T13:57:10.858Z,5.70
2018-04-23T13:59:40.040Z,4.00
2018-04-23T14:02:06.014Z,4.33
2018-04-23T14:04:35.562Z,4.30
2018-04-23T14:07:01.569Z,5.07
2018-04-23T14:09:28.815Z,4.00
2018-04-23T14:11:54.707Z,4.20
2018-04-23T14:14:20.595Z,4.90
2018-04-23T14:16:46.494Z,4.93
2018-04-23T14:19:12.411Z,4.10
2018-04-23T14:21:40.847Z,4.20
2018-04-23T14:24:08.531Z,4.80
2018-04-23T14:26:35.586Z,5.40
2018-04-23T14:29:01.479Z,4.70
2018-04-23T14:31:30.070Z,4.60
2018-04-23T14:33:56.449Z,4.73
2018-04-23T14:36:24.719Z,5.27
2018-04-23T14:38:50.895Z,3.83
2018-04-23T14:41:20.484Z,4.70
2018-04-23T14:43:46.360Z,5.60
2018-04-23T14:46:15.948Z,4.20
2018-04-23T14:48:41.883Z,4.43
2018-04-23T14:51:07.762Z,3.50
2018-04-23T14:53:33.658Z,2.57
2018-04-23T14:55:59.563Z,2.30
2018-04-23T14:58:25.796Z,3.27
2018-04-23T15:00:51.710Z,2.80
2018-04-23T15:03:20.495Z,2.90
2018-04-23T15:05:46.423Z,3.50
2018-04-23T15:08:16.248Z,2.60
2018-04-23T15:10:42.129Z,3.03
2018-04-23T15:13:10.211Z,3.30
2018-04-23T15:15:36.135Z,3.03
2018-04-23T15:18:05.536Z,3.13
2018-04-23T15:20:31.411Z,3.03
2018-04-23T15:22:59.828Z,2.80
2018-04-23T15:25:25.683Z,2.73
2018-04-23T15:27:51.683Z,3.10
2018-04-23T15:30:17.625Z,3.00
2018-04-23T15:32:43.566Z,3.23
2018-04-23T15:35:11.279Z,4.43
2018-04-23T15:37:37.167Z,2.90
2018-04-23T15:40:05.890Z,2.93
2018-04-23T15:42:31.863Z,3.00
2018-04-23T15:45:00.630Z,3.20
2018-04-23T15:47:26.548Z,3.13
2018-04-23T15:49:55.334Z,3.93
2018-04-23T15:52:21.255Z,3.83
2018-04-23T15:54:49.999Z,2.70
2018-04-23T15:57:15.871Z,2.90
2018-04-23T15:59:44.803Z,3.63
2018-04-23T16:02:10.675Z,3.40
2018-04-23T16:04:36.575Z,3.70
2018-04-23T16:07:02.561Z,3.60
2018-04-23T16:09:28.488Z,3.30
2018-04-23T16:11:56.915Z,3.17
2018-04-23T16:14:22.826Z,4.00
2018-04-23T16:16:52.026Z,4.00
2018-04-23T16:19:17.948Z,3.70
2018-04-23T16:21:47.491Z,4.33
2018-04-23T16:24:13.359Z,4.33
2018-04-23T16:26:40.921Z,4.73
2018-04-23T16:29:06.811Z,4.40
2018-04-23T16:31:36.347Z,5.97
2018-04-23T16:34:02.242Z,4.10
2018-04-23T16:36:31.825Z,3.90
2018-04-23T16:38:57.728Z,3.87
2018-04-23T16:41:23.639Z,4.43
2018-04-23T16:43:49.569Z,4.10
2018-04-23T16:46:15.459Z,4.23
2018-04-23T16:48:42.387Z,4.70
2018-04-23T16:51:08.272Z,3.73
2018-04-23T16:53:37.658Z,4.70
2018-04-23T16:56:03.591Z,4.50
2018-04-23T16:58:33.110Z,4.10
2018-04-23T17:00:58.981Z,4.77
2018-04-23T17:03:26.410Z,6.20
2018-04-23T17:05:52.312Z,4.43
2018-04-23T17:08:21.763Z,4.83
2018-04-23T17:10:47.683Z,4.07
2018-04-23T17:13:17.443Z,4.27
2018-04-23T17:15:43.324Z,5.13
2018-04-23T17:18:09.241Z,5.47
2018-04-23T17:20:35.127Z,5.57
2018-04-23T17:23:01.092Z,4.60
2018-04-23T17:25:27.038Z,5.53
2018-04-23T17:27:53.407Z,6.07
2018-04-23T17:30:22.583Z,4.30
2018-04-23T17:32:48.499Z,4.30
2018-04-23T17:35:16.580Z,5.10
2018-04-23T17:37:42.523Z,4.07
2018-04-23T17:40:12.140Z,5.30
2018-04-23T17:42:38.099Z,4.67
2018-04-23T17:45:07.704Z,4.70
2018-04-23T17:47:33.639Z,5.00
2018-04-23T17:50:00.734Z,5.00
2018-04-23T17:52:26.624Z,5.57
2018-04-23T17:54:53.370Z,11.90
2018-04-23T17:57:19.240Z,5.23
2018-04-23T17:59:45.173Z,5.60
2018-04-23T18:02:14.099Z,4.23
2018-04-23T18:04:40.012Z,5.07
2018-04-23T18:07:08.977Z,5.17
2018-04-23T18:09:34.825Z,4.17
2018-04-23T18:12:02.771Z,5.07
2018-04-23T18:14:28.667Z,4.67
2018-04-23T18:16:56.512Z,5.03
2018-04-23T18:19:24.983Z,4.43
2018-04-23T18:21:51.164Z,4.47
2018-04-23T18:24:17.073Z,5.70
2018-04-23T18:26:46.459Z,4.33
2018-04-23T18:29:12.333Z,5.80
2018-04-23T18:31:38.414Z,5.03
2018-04-23T18:34:04.509Z,4.70
2018-04-23T18:36:31.130Z,4.20
2018-04-23T18:38:57.738Z,4.83
2018-04-23T18:41:23.643Z,3.83
2018-04-23T18:43:52.172Z,3.93
2018-04-23T18:46:18.114Z,4.10
2018-04-23T18:48:47.329Z,4.77
2018-04-23T18:51:13.231Z,4.80
2018-04-23T18:53:42.191Z,5.20
2018-04-23T18:56:08.391Z,5.23
2018-04-23T18:58:36.444Z,5.57
2018-04-23T19:01:02.340Z,3.70
2018-04-23T19:03:31.484Z,4.80
2018-04-23T19:05:57.401Z,5.30
2018-04-23T19:08:23.273Z,4.90
2018-04-23T19:10:49.216Z,4.20
2018-04-23T19:13:15.119Z,4.57
2018-04-23T19:15:44.534Z,4.30
2018-04-23T19:18:10.423Z,4.30
2018-04-23T19:20:38.494Z,4.40
2018-04-23T19:23:04.475Z,4.73
2018-04-23T19:25:36.649Z,5.53
2018-04-23T19:28:03.062Z,4.70
2018-04-23T19:30:28.996Z,4.23
2018-04-23T19:32:54.946Z,4.33
2018-04-23T19:35:21.876Z,5.20
2018-04-23T19:37:47.752Z,5.27
2018-04-23T19:40:16.553Z,4.27
2018-04-23T19:42:44.765Z,4.00
2018-04-23T19:45:10.773Z,5.87
2018-04-23T19:47:36.655Z,4.60
2018-04-23T19:50:02.591Z,5.97
2018-04-23T19:52:28.502Z,5.63
2018-04-23T19:54:54.408Z,5.20
2018-04-23T19:57:24.265Z,4.33
2018-04-23T19:59:50.154Z,6.60
2018-04-23T20:02:17.683Z,4.97
2018-04-23T20:04:43.564Z,4.57
2018-04-23T20:07:12.712Z,5.77
2018-04-23T20:09:38.814Z,5.17
2018-04-23T20:12:08.412Z,5.50
2018-04-23T20:14:34.400Z,5.00
2018-04-23T20:17:03.594Z,6.30
2018-04-23T20:19:29.472Z,5.20
2018-04-23T20:21:55.389Z,4.90
2018-04-23T20:24:21.295Z,4.60
2018-04-23T20:26:47.178Z,5.60
2018-04-23T20:29:13.870Z,4.87
2018-04-23T20:31:39.752Z,5.10
2018-04-23T20:34:09.179Z,5.80
2018-04-23T20:36:35.045Z,5.13
2018-04-23T20:39:03.317Z,6.10
2018-04-23T20:41:29.224Z,5.07
2018-04-23T20:43:59.031Z,4.90
2018-04-23T20:46:24.971Z,5.93
2018-04-23T20:48:52.466Z,5.33
2018-04-23T20:51:18.389Z,5.13
2018-04-23T20:53:47.950Z,4.80
2018-04-23T20:56:13.814Z,5.60
2018-04-23T20:58:39.725Z,5.60
2018-04-23T21:01:05.678Z,5.53
2018-04-23T21:03:31.564Z,5.47
2018-04-23T21:05:59.253Z,5.03
2018-04-23T21:08:25.114Z,4.63
2018-04-23T21:10:53.768Z,4.60
2018-04-23T21:13:19.700Z,4.97
2018-04-23T21:15:48.302Z,5.20
2018-04-23T21:18:14.236Z,5.13
2018-04-23T21:20:43.152Z,8.33
2018-04-23T21:23:09.070Z,20.03
2018-04-23T21:25:38.225Z,7.73
2018-04-23T21:28:05.174Z,5.47
2018-04-23T21:30:32.504Z,5.70
2018-04-23T21:32:58.645Z,5.13
2018-04-23T21:35:24.578Z,5.43
2018-04-23T21:37:50.493Z,5.33
2018-04-23T21:40:16.396Z,6.87
2018-04-23T21:42:45.772Z,6.07
2018-04-23T21:45:11.719Z,5.23
2018-04-23T21:47:40.791Z,6.90
2018-04-23T21:50:06.691Z,6.50
2018-04-23T21:52:34.175Z,6.30
2018-04-23T21:55:00.248Z,5.17
2018-04-23T21:57:28.580Z,5.37
2018-04-23T21:59:54.474Z,6.33
2018-04-23T22:02:23.499Z,5.10
2018-04-23T22:04:49.446Z,5.57
2018-04-23T22:07:18.802Z,5.90
2018-04-23T22:09:44.735Z,5.27
2018-04-23T22:12:10.663Z,5.63
2018-04-23T22:14:36.594Z,5.13
2018-04-23T22:17:02.607Z,6.40
2018-04-23T22:19:29.568Z,5.70
2018-04-23T22:21:55.482Z,5.87
2018-04-23T22:24:25.367Z,5.73
2018-04-23T22:26:51.308Z,6.00
2018-04-23T22:29:18.938Z,6.83
2018-04-23T22:31:44.868Z,6.70
2018-04-23T22:34:14.717Z,6.47
2018-04-23T22:36:40.652Z,6.40
2018-04-23T22:39:08.579Z,7.70
2018-04-23T22:41:34.492Z,7.87
2018-04-23T22:44:04.205Z,7.40
2018-04-23T22:46:30.157Z,6.63
2018-04-23T22:48:56.105Z,6.50
2018-04-23T22:51:22.031Z,6.53
2018-04-23T22:53:47.944Z,5.80
2018-04-23T22:56:14.859Z,5.17
2018-04-23T22:58:40.765Z,5.00
2018-04-23T23:01:09.506Z,6.53
2018-04-23T23:03:35.466Z,7.07
2018-04-23T23:06:04.771Z,6.17
2018-04-23T23:08:30.700Z,6.43
2018-04-23T23:10:59.853Z,6.70
2018-04-23T23:13:25.763Z,6.03
2018-04-23T23:15:55.239Z,8.27
2018-04-23T23:18:21.140Z,6.03
2018-04-23T23:20:48.598Z,7.43
2018-04-23T23:23:14.517Z,6.63
2018-04-23T23:25:40.394Z,6.10
2018-04-23T23:28:06.311Z,5.50
2018-04-23T23:30:32.210Z,6.63
2018-04-23T23:33:01.776Z,5.87
2018-04-23T23:35:27.724Z,5.63
2018-04-23T23:37:55.708Z,6.50
2018-04-23T23:40:21.559Z,5.60
2018-04-23T23:42:51.110Z,6.63
2018-04-23T23:45:17.032Z,6.05
2018-04-23T23:47:44.215Z,5.50
2018-04-23T23:50:10.161Z,6.12
2018-04-23T23:52:38.839Z,5.70
2018-04-23T23:55:04.752Z,5.68
2018-04-23T23:57:33.458Z,6.00
2018-04-23T23:59:59.396Z,5.00
